Time;durP1;ratioP1;P1;durP2;ratioP2;P2;SDS_P1;SDS_P2;PMS_P1;PMS_P2;Temp;Humidity;BMP_temperature;BMP_pressure;BME280_temperature;BME280_humidity;BME280_pressure;Samples;Min_cycle;Max_cycle;Signal;HPM_P1;HPM_P2
2021/05/15 00:02:20;;;;;;;11.07;5.50;;;10.40;99.90;;;;;;6294782;22;20171;-80
2021/05/15 00:04:47;;;;;;;7.47;5.23;;;10.40;99.90;;;;;;6294973;22;20379;-78
2021/05/15 00:07:13;;;;;;;5.50;4.80;;;10.40;99.90;;;;;;6296208;22;20195;-79
2021/05/15 00:09:40;;;;;;;5.57;4.73;;;10.40;99.90;;;;;;6295154;22;20677;-78
2021/05/15 00:12:07;;;;;;;6.93;5.53;;;10.40;99.90;;;;;;6294188;22;20176;-81
2021/05/15 00:14:33;;;;;;;7.20;5.27;;;10.40;99.90;;;;;;6295597;22;20171;-80
2021/05/15 00:17:01;;;;;;;6.90;5.90;;;10.40;99.90;;;;;;6295410;22;20198;-80
2021/05/15 00:19:28;;;;;;;8.40;5.90;;;10.40;99.90;;;;;;6294692;22;20284;-79
2021/05/15 00:21:54;;;;;;;10.37;6.53;;;10.40;99.90;;;;;;6296071;22;20424;-80
2021/05/15 00:24:20;;;;;;;9.07;6.63;;;10.40;99.90;;;;;;6296247;22;20168;-77
2021/05/15 00:26:47;;;;;;;9.33;6.57;;;10.50;99.90;;;;;;6294475;22;20719;-81
2021/05/15 00:29:13;;;;;;;8.47;6.33;;;10.50;99.90;;;;;;6295456;22;20852;-80
2021/05/15 00:31:39;;;;;;;7.37;5.93;;;10.50;99.90;;;;;;6295952;22;20195;-79
2021/05/15 00:34:07;;;;;;;6.77;5.93;;;10.40;99.90;;;;;;6294604;22;20168;-79
2021/05/15 00:36:33;;;;;;;6.73;5.37;;;10.40;99.90;;;;;;6295694;22;20172;-80
2021/05/15 00:39:00;;;;;;;9.13;6.53;;;10.40;99.90;;;;;;6294782;22;20176;-79
2021/05/15 00:41:26;;;;;;;11.10;6.43;;;10.50;99.90;;;;;;6295625;22;20178;-81
2021/05/15 00:44:10;;;;;;;6.63;5.67;;;10.50;99.90;;;;;;6294957;22;20210;-79
2021/05/15 00:46:37;;;;;;;7.50;5.97;;;10.40;99.90;;;;;;6294308;22;20192;-79
2021/05/15 00:49:04;;;;;;;9.83;6.80;;;10.40;99.90;;;;;;6295433;22;20206;-80
2021/05/15 00:51:32;;;;;;;11.23;6.70;;;10.40;99.90;;;;;;6294809;22;20176;-78
2021/05/15 00:53:59;;;;;;;8.30;6.93;;;10.50;99.90;;;;;;6294046;22;20225;-78
2021/05/15 00:56:28;;;;;;;11.50;7.30;;;10.50;99.90;;;;;;6294829;22;20179;-81
2021/05/15 00:58:55;;;;;;;10.00;7.30;;;10.50;99.90;;;;;;6294865;22;20172;-80
2021/05/15 01:01:21;;;;;;;9.10;6.83;;;10.40;99.90;;;;;;6294299;22;20168;-80
2021/05/15 01:03:48;;;;;;;11.03;7.33;;;10.40;99.90;;;;;;6294516;22;20203;-80
2021/05/15 01:06:14;;;;;;;8.53;6.13;;;10.40;99.90;;;;;;6295019;22;20192;-79
2021/05/15 01:08:45;;;;;;;9.03;6.77;;;10.40;99.90;;;;;;6293244;22;20164;-79
2021/05/15 01:11:12;;;;;;;7.33;6.27;;;10.40;99.90;;;;;;6294789;22;20171;-80
2021/05/15 01:13:38;;;;;;;7.60;5.80;;;10.40;99.90;;;;;;6293741;22;20172;-78
2021/05/15 01:16:06;;;;;;;9.33;5.53;;;10.40;99.90;;;;;;6293470;22;20234;-78
2021/05/15 01:18:32;;;;;;;12.57;6.53;;;10.40;99.90;;;;;;6295029;22;20229;-80
2021/05/15 01:21:00;;;;;;;7.93;6.17;;;10.40;99.90;;;;;;6294972;22;20294;-77
2021/05/15 01:23:27;;;;;;;9.57;7.10;;;10.40;99.90;;;;;;6293219;22;20171;-78
2021/05/15 01:25:53;;;;;;;9.47;6.27;;;10.30;99.90;;;;;;6295296;22;20192;-79
2021/05/15 01:28:20;;;;;;;8.67;6.63;;;10.40;99.90;;;;;;6294102;22;20176;-79
2021/05/15 01:30:46;;;;;;;7.27;5.93;;;10.30;99.90;;;;;;6295409;22;20195;-79
2021/05/15 01:33:12;;;;;;;10.50;6.80;;;10.30;99.90;;;;;;6295217;22;20172;-78
2021/05/15 01:35:39;;;;;;;10.27;6.83;;;10.30;99.90;;;;;;6293999;22;20172;-79
2021/05/15 01:38:06;;;;;;;10.40;6.80;;;10.30;99.90;;;;;;6294366;22;20175;-79
2021/05/15 01:40:32;;;;;;;6.73;5.90;;;10.30;99.90;;;;;;6294840;22;20185;-79
2021/05/15 01:42:58;;;;;;;8.73;6.17;;;10.30;99.90;;;;;;6295508;22;20233;-80
2021/05/15 01:45:26;;;;;;;8.97;6.50;;;10.30;99.90;;;;;;6296142;22;20241;-80
2021/05/15 01:47:53;;;;;;;8.20;6.23;;;10.30;99.90;;;;;;6296733;22;20279;-79
2021/05/15 01:50:19;;;;;;;9.93;6.63;;;10.40;99.90;;;;;;6296354;22;20518;-79
2021/05/15 01:52:45;;;;;;;10.07;6.40;;;10.40;99.90;;;;;;6296799;22;20172;-80
2021/05/15 01:55:19;;;;;;;11.50;7.47;;;10.40;99.90;;;;;;6297199;22;20172;-79
2021/05/15 01:57:45;;;;;;;8.87;6.93;;;10.40;99.90;;;;;;6296940;22;20164;-79
2021/05/15 02:00:13;;;;;;;9.73;7.30;;;10.40;99.90;;;;;;6296225;22;20222;-80
2021/05/15 02:02:39;;;;;;;11.80;6.97;;;10.40;99.90;;;;;;6296386;22;20167;-78
2021/05/15 02:05:06;;;;;;;8.43;6.53;;;10.40;99.90;;;;;;6295416;22;20168;-80
2021/05/15 02:07:33;;;;;;;9.23;7.50;;;10.40;99.90;;;;;;6297236;22;20200;-78
2021/05/15 02:10:00;;;;;;;10.93;7.33;;;10.50;99.90;;;;;;6296223;22;20207;-79
2021/05/15 02:42:46;;;;;;;9.83;6.10;;;10.30;99.90;;;;;;6294424;22;20166;-78
2021/05/15 02:45:14;;;;;;;9.40;6.33;;;10.30;99.90;;;;;;6295496;22;20788;-77
2021/05/15 02:47:41;;;;;;;9.50;6.53;;;10.40;99.90;;;;;;6295467;22;20511;-78
2021/05/15 02:50:08;;;;;;;8.87;6.43;;;10.40;99.90;;;;;;6295242;22;20564;-78
2021/05/15 02:52:35;;;;;;;7.33;5.77;;;10.30;99.90;;;;;;6294069;22;20175;-79
2021/05/15 02:55:02;;;;;;;8.33;6.40;;;10.30;99.90;;;;;;6294680;22;20169;-78
2021/05/15 02:57:28;;;;;;;9.37;5.33;;;10.20;99.90;;;;;;6294892;22;20230;-79
2021/05/15 02:59:55;;;;;;;9.90;5.80;;;10.30;99.90;;;;;;6294559;22;20183;-78
2021/05/15 03:02:21;;;;;;;8.53;6.03;;;10.30;99.90;;;;;;6295197;22;20175;-78
2021/05/15 03:04:48;;;;;;;9.60;5.40;;;10.30;99.90;;;;;;6294745;22;20188;-79
2021/05/15 03:07:14;;;;;;;10.67;6.63;;;10.30;99.90;;;;;;6294617;22;20192;-78
2021/05/15 03:09:43;;;;;;;9.57;6.93;;;10.30;99.90;;;;;;6294486;22;20218;-80
2021/05/15 03:12:09;;;;;;;11.53;6.80;;;10.30;99.90;;;;;;6294934;22;20207;-78
2021/05/15 03:14:36;;;;;;;10.20;7.43;;;10.30;99.90;;;;;;6294320;22;20179;-80
2021/05/15 03:17:03;;;;;;;9.90;8.03;;;10.30;99.90;;;;;;6295800;22;20750;-80
2021/05/15 03:19:30;;;;;;;10.87;8.27;;;10.30;99.90;;;;;;6294862;22;20168;-79
2021/05/15 03:21:56;;;;;;;10.93;8.63;;;10.30;99.90;;;;;;6294678;22;20233;-77
2021/05/15 03:24:22;;;;;;;10.60;9.23;;;10.30;99.90;;;;;;6295263;22;20179;-78
2021/05/15 03:26:49;;;;;;;11.30;8.73;;;10.30;99.90;;;;;;6267721;22;20215;-79
2021/05/15 03:29:16;;;;;;;12.47;8.13;;;10.30;99.90;;;;;;6295283;22;20222;-78
2021/05/15 03:31:42;;;;;;;13.63;8.60;;;10.30;99.90;;;;;;6295440;22;20378;-80
2021/05/15 03:34:09;;;;;;;11.07;9.17;;;10.30;99.90;;;;;;6296019;22;20176;-80
2021/05/15 03:36:36;;;;;;;16.27;9.50;;;10.20;99.90;;;;;;6295646;22;20171;-81
2021/05/15 03:39:03;;;;;;;12.60;10.10;;;10.20;99.90;;;;;;6295625;22;20176;-77
2021/05/15 03:41:29;;;;;;;13.47;10.83;;;10.20;99.90;;;;;;6295122;22;20175;-79
2021/05/15 03:43:55;;;;;;;12.47;9.93;;;10.20;99.90;;;;;;6294927;22;20168;-78
2021/05/15 03:46:22;;;;;;;12.37;8.97;;;10.20;99.90;;;;;;6295960;22;20195;-79
2021/05/15 03:48:48;;;;;;;11.50;9.60;;;10.20;99.90;;;;;;6294911;22;20180;-79
2021/05/15 03:51:16;;;;;;;12.03;10.00;;;10.20;99.90;;;;;;6295641;22;20403;-79
2021/05/15 03:53:42;;;;;;;13.13;9.83;;;10.10;99.90;;;;;;6295458;22;20523;-80
2021/05/15 03:56:08;;;;;;;13.77;10.00;;;10.10;99.90;;;;;;6294380;22;20179;-77
2021/05/15 03:58:34;;;;;;;14.63;9.50;;;10.00;99.90;;;;;;6294367;22;20172;-77
2021/05/15 04:01:01;;;;;;;11.53;9.93;;;10.00;99.90;;;;;;6295134;22;20176;-78
2021/05/15 04:03:27;;;;;;;16.90;10.13;;;10.00;99.90;;;;;;6294669;22;20205;-77
2021/05/15 04:05:53;;;;;;;13.30;9.10;;;10.00;99.90;;;;;;6294125;22;20176;-80
2021/05/15 04:08:20;;;;;;;10.30;8.53;;;9.90;99.90;;;;;;6294587;22;20783;-79
2021/05/15 04:10:47;;;;;;;12.87;8.73;;;9.90;99.90;;;;;;6294092;22;20297;-78
2021/05/15 04:13:21;;;;;;;10.60;9.43;;;9.90;99.90;;;;;;6295666;22;20176;-79
2021/05/15 04:15:51;;;;;;;11.60;9.17;;;9.80;99.90;;;;;;6293730;22;20203;-77
2021/05/15 04:18:17;;;;;;;11.27;9.60;;;9.80;99.90;;;;;;6293994;22;20189;-77
2021/05/15 04:20:45;;;;;;;13.87;9.20;;;9.80;99.90;;;;;;6295234;22;20167;-78
2021/05/15 04:23:12;;;;;;;10.03;8.40;;;9.80;99.90;;;;;;6293873;22;20168;-79
2021/05/15 04:25:40;;;;;;;11.37;9.40;;;9.80;99.90;;;;;;6293782;22;20187;-79
2021/05/15 04:28:07;;;;;;;12.73;8.80;;;9.80;99.90;;;;;;6294336;22;20179;-78
2021/05/15 04:30:35;;;;;;;13.33;8.50;;;9.80;99.90;;;;;;6294299;22;20206;-79
2021/05/15 04:33:01;;;;;;;13.13;9.70;;;9.80;99.90;;;;;;6293685;22;20168;-80
2021/05/15 04:35:32;;;;;;;10.70;8.77;;;9.80;99.90;;;;;;6294759;22;20456;-79
2021/05/15 04:37:58;;;;;;;12.50;9.20;;;9.80;99.90;;;;;;6294010;22;20435;-79
2021/05/15 04:40:24;;;;;;;10.90;9.27;;;9.80;99.90;;;;;;6294404;22;20211;-78
2021/05/15 04:42:52;;;;;;;9.07;8.13;;;9.80;99.90;;;;;;6293740;22;20168;-78
2021/05/15 04:45:18;;;;;;;11.83;9.30;;;9.80;99.90;;;;;;6293868;22;20180;-79
2021/05/15 04:47:44;;;;;;;14.37;8.10;;;9.80;99.90;;;;;;6293833;22;20218;-79
2021/05/15 04:50:12;;;;;;;12.07;8.53;;;9.80;99.90;;;;;;6294266;22;20164;-79
2021/05/15 04:52:38;;;;;;;12.73;9.00;;;9.80;99.90;;;;;;6293786;22;20174;-79
2021/05/15 04:55:06;;;;;;;12.10;9.27;;;9.90;99.90;;;;;;6293871;22;20176;-80
2021/05/15 04:57:33;;;;;;;12.93;8.53;;;9.90;99.90;;;;;;6295103;22;20199;-80
2021/05/15 05:00:00;;;;;;;10.53;8.27;;;9.80;99.90;;;;;;6294034;22;20168;-79
2021/05/15 05:02:26;;;;;;;10.37;8.73;;;9.80;99.90;;;;;;6294746;22;20235;-80
2021/05/15 05:04:53;;;;;;;11.37;8.50;;;9.80;99.90;;;;;;6295360;22;20575;-79
2021/05/15 05:07:19;;;;;;;9.20;7.77;;;9.80;99.90;;;;;;6297119;22;20195;-81
2021/05/15 05:09:45;;;;;;;10.10;7.87;;;9.80;99.90;;;;;;6297719;22;20207;-83
2021/05/15 05:12:14;;;;;;;13.90;8.17;;;9.80;99.90;;;;;;6298093;22;20176;-82
2021/05/15 05:14:41;;;;;;;9.90;8.57;;;9.80;99.90;;;;;;6297437;22;20179;-83
2021/05/15 05:17:08;;;;;;;11.43;7.80;;;9.70;99.90;;;;;;6298139;22;20179;-83
2021/05/15 05:19:34;;;;;;;9.73;7.97;;;9.70;99.90;;;;;;6299993;22;20225;-82
2021/05/15 05:22:02;;;;;;;8.30;7.40;;;9.70;99.90;;;;;;6297522;22;20183;-81
2021/05/15 05:24:29;;;;;;;9.67;7.87;;;9.70;99.90;;;;;;6298663;22;20255;-82
2021/05/15 05:26:55;;;;;;;14.07;8.13;;;9.60;99.90;;;;;;6300397;22;20195;-82
2021/05/15 05:29:22;;;;;;;8.63;7.80;;;9.60;99.90;;;;;;6300281;22;20176;-82
2021/05/15 05:31:51;;;;;;;7.90;7.10;;;9.60;99.90;;;;;;6299409;22;20168;-81
2021/05/15 05:34:19;;;;;;;7.93;7.10;;;9.60;99.90;;;;;;6299099;22;20171;-81
2021/05/15 05:36:47;;;;;;;8.03;7.20;;;9.60;99.90;;;;;;6300813;22;20584;-81
2021/05/15 05:39:17;;;;;;;9.03;7.87;;;9.60;99.90;;;;;;6300510;22;20576;-82
2021/05/15 05:41:44;;;;;;;8.37;7.50;;;9.60;99.90;;;;;;6299444;22;20167;-82
2021/05/15 05:44:11;;;;;;;8.27;7.47;;;9.60;99.90;;;;;;6300678;22;20175;-83
2021/05/15 05:46:37;;;;;;;8.80;7.17;;;9.60;99.90;;;;;;6301494;22;20192;-83
2021/05/15 05:49:04;;;;;;;11.10;7.27;;;9.60;99.90;;;;;;6300913;22;20175;-82
2021/05/15 05:51:31;;;;;;;8.43;7.30;;;9.60;99.90;;;;;;6300213;22;20560;-83
2021/05/15 05:53:58;;;;;;;9.63;7.17;;;9.60;99.90;;;;;;6301508;22;20168;-83
2021/05/15 05:56:24;;;;;;;8.93;7.37;;;9.70;99.90;;;;;;6299104;22;20164;-83
2021/05/15 05:58:51;;;;;;;10.03;7.13;;;9.60;99.90;;;;;;6300039;22;20172;-81
2021/05/15 06:01:17;;;;;;;8.27;7.37;;;9.60;99.90;;;;;;6301602;22;20542;-82
2021/05/15 06:03:44;;;;;;;8.20;7.40;;;9.60;99.90;;;;;;6300660;22;20190;-82
2021/05/15 06:06:11;;;;;;;9.20;7.97;;;9.60;99.90;;;;;;6299890;22;20659;-80
2021/05/15 06:08:39;;;;;;;8.10;7.17;;;9.60;99.90;;;;;;6298742;22;20583;-79
2021/05/15 06:11:06;;;;;;;9.30;8.30;;;9.60;99.90;;;;;;6296913;22;20200;-80
2021/05/15 06:13:32;;;;;;;10.00;7.33;;;9.60;99.90;;;;;;6296093;22;20172;-81
2021/05/15 06:15:59;;;;;;;9.93;7.13;;;9.60;99.90;;;;;;6297806;22;20176;-83
2021/05/15 06:18:25;;;;;;;9.43;7.47;;;9.60;99.90;;;;;;6300273;22;20168;-82
2021/05/15 06:20:51;;;;;;;9.03;7.57;;;9.60;99.90;;;;;;6299745;22;20172;-81
2021/05/15 06:23:18;;;;;;;8.50;7.23;;;9.60;99.90;;;;;;6300262;22;20168;-79
2021/05/15 06:25:45;;;;;;;9.00;7.57;;;9.60;99.90;;;;;;6299283;22;20178;-80
2021/05/15 06:28:12;;;;;;;9.63;7.30;;;9.60;99.90;;;;;;6299264;22;20192;-82
2021/05/15 06:30:38;;;;;;;8.53;7.70;;;9.70;99.90;;;;;;6299806;22;20172;-81
2021/05/15 06:33:05;;;;;;;11.23;8.47;;;9.80;99.90;;;;;;6300322;22;20180;-81
2021/05/15 06:35:32;;;;;;;8.60;7.60;;;9.80;99.90;;;;;;6301192;22;20183;-83
2021/05/15 06:37:59;;;;;;;7.87;7.17;;;9.80;99.90;;;;;;6298979;22;20588;-83
2021/05/15 06:40:25;;;;;;;7.67;6.73;;;9.80;99.90;;;;;;6300999;22;20812;-80
2021/05/15 06:42:53;;;;;;;10.13;6.70;;;9.80;99.90;;;;;;6300529;22;20176;-82
2021/05/15 06:45:19;;;;;;;7.07;6.03;;;9.80;99.90;;;;;;6299707;22;20184;-83
2021/05/15 06:47:45;;;;;;;8.10;6.73;;;9.80;99.90;;;;;;6300632;22;20723;-85
2021/05/15 06:50:12;;;;;;;7.57;6.77;;;9.90;99.90;;;;;;6300450;22;20592;-83
2021/05/15 06:52:39;;;;;;;10.30;7.00;;;9.90;99.90;;;;;;6299456;22;20168;-81
2021/05/15 06:55:07;;;;;;;6.67;6.07;;;9.90;99.90;;;;;;6299543;22;20199;-81
2021/05/15 06:57:33;;;;;;;6.30;5.70;;;9.90;99.90;;;;;;6300277;22;20265;-82
2021/05/15 07:00:00;;;;;;;7.60;6.50;;;9.90;99.90;;;;;;6299215;22;20172;-83
2021/05/15 07:02:27;;;;;;;7.07;6.37;;;9.90;99.90;;;;;;6300082;22;20168;-82
2021/05/15 07:04:53;;;;;;;7.73;6.00;;;10.00;99.90;;;;;;6299099;22;20165;-83
2021/05/15 07:07:20;;;;;;;9.30;7.30;;;9.90;99.90;;;;;;6299402;22;20191;-83
2021/05/15 07:09:49;;;;;;;8.70;7.23;;;9.90;99.90;;;;;;6298835;22;20910;-83
2021/05/15 07:12:16;;;;;;;9.73;7.73;;;9.90;99.90;;;;;;6299299;22;20899;-79
2021/05/15 07:14:42;;;;;;;10.17;8.20;;;9.90;99.90;;;;;;6300026;22;20575;-82
2021/05/15 07:17:09;;;;;;;10.67;7.67;;;9.90;99.90;;;;;;6298455;22;20381;-83
2021/05/15 07:19:35;;;;;;;11.87;7.80;;;10.00;99.90;;;;;;6298489;22;20176;-82
2021/05/15 07:22:02;;;;;;;8.57;6.77;;;10.10;99.90;;;;;;6296876;22;20699;-79
2021/05/15 07:24:28;;;;;;;7.17;6.47;;;10.10;99.90;;;;;;6296363;22;20854;-81
2021/05/15 07:27:15;;;;;;;9.93;7.60;;;10.20;99.90;;;;;;6269335;22;20399;-80
2021/05/15 07:29:42;;;;;;;7.50;6.57;;;10.30;99.90;;;;;;6296886;22;20825;-80
2021/05/15 07:32:09;;;;;;;9.63;7.40;;;10.30;99.90;;;;;;6298081;22;20178;-81
2021/05/15 07:34:35;;;;;;;8.10;6.93;;;10.40;99.90;;;;;;6297770;22;20172;-81
2021/05/15 07:37:02;;;;;;;11.17;6.70;;;10.40;99.90;;;;;;6296195;22;20172;-82
2021/05/15 07:39:31;;;;;;;7.57;6.83;;;10.40;99.90;;;;;;6296221;22;20188;-81
2021/05/15 07:41:57;;;;;;;7.40;6.57;;;10.50;99.90;;;;;;6296782;22;20191;-81
2021/05/15 07:51:25;;;;;;;6.30;5.70;;;10.60;99.90;;;;;;6255321;22;20536;-81
2021/05/15 07:53:53;;;;;;;5.90;4.73;;;10.60;99.90;;;;;;6296952;22;20846;-82
2021/05/15 07:56:20;;;;;;;4.77;4.27;;;10.60;99.90;;;;;;6296297;22;20173;-80
2021/05/15 07:58:46;;;;;;;4.60;4.20;;;10.70;99.90;;;;;;6296131;22;20245;-81
2021/05/15 08:01:13;;;;;;;4.27;3.83;;;10.70;99.90;;;;;;6296518;22;20168;-81
2021/05/15 08:03:39;;;;;;;5.30;4.80;;;10.80;99.90;;;;;;6295991;22;20175;-81
2021/05/15 08:06:06;;;;;;;4.43;4.00;;;10.80;99.90;;;;;;6295102;22;20187;-81
2021/05/15 08:08:33;;;;;;;4.50;4.10;;;10.80;99.90;;;;;;6295239;22;20234;-80
2021/05/15 08:10:59;;;;;;;6.20;4.07;;;10.80;99.90;;;;;;6295454;22;20215;-79
2021/05/15 08:13:26;;;;;;;4.87;4.10;;;10.90;99.90;;;;;;6296076;22;20638;-81
2021/05/15 08:15:53;;;;;;;4.20;3.80;;;10.90;99.90;;;;;;6295619;22;20183;-81
2021/05/15 08:18:20;;;;;;;4.10;3.70;;;11.00;99.90;;;;;;6296015;22;20286;-80
2021/05/15 08:20:46;;;;;;;3.97;3.60;;;11.00;99.90;;;;;;6295427;22;20848;-81
2021/05/15 08:23:14;;;;;;;4.93;3.97;;;11.10;99.90;;;;;;6295913;22;20168;-82
2021/05/15 08:25:42;;;;;;;4.13;3.50;;;11.10;99.90;;;;;;6293922;22;20694;-81
2021/05/15 08:28:12;;;;;;;4.17;3.50;;;11.10;99.90;;;;;;6292701;22;20192;-81
2021/05/15 08:30:38;;;;;;;3.80;3.30;;;11.20;99.90;;;;;;6294030;22;20164;-81
2021/05/15 08:33:06;;;;;;;3.47;3.17;;;11.10;99.90;;;;;;6293043;22;20168;-81
2021/05/15 08:35:33;;;;;;;3.50;3.17;;;11.10;99.90;;;;;;6293418;22;20172;-80
2021/05/15 08:37:59;;;;;;;4.13;3.40;;;11.10;99.90;;;;;;6293176;22;20172;-81
2021/05/15 08:40:27;;;;;;;4.07;3.67;;;11.10;99.90;;;;;;6293962;22;20192;-81
2021/05/15 08:42:56;;;;;;;4.03;3.63;;;11.10;99.90;;;;;;6295457;22;20172;-81
2021/05/15 08:45:24;;;;;;;4.10;3.70;;;11.20;99.90;;;;;;6296292;22;20172;-80
2021/05/15 08:47:52;;;;;;;3.93;3.40;;;11.20;99.90;;;;;;6296376;22;20196;-81
2021/05/15 08:50:20;;;;;;;4.07;3.57;;;11.20;99.90;;;;;;6296266;22;20183;-81
2021/05/15 08:52:48;;;;;;;3.97;3.57;;;11.30;99.90;;;;;;6296102;22;20175;-82
2021/05/15 08:55:16;;;;;;;4.40;3.90;;;11.30;99.90;;;;;;6296372;22;20164;-82
2021/05/15 08:57:43;;;;;;;5.23;3.67;;;11.40;99.90;;;;;;6296374;22;20167;-82
2021/05/15 09:00:15;;;;;;;4.50;3.87;;;11.50;99.90;;;;;;6294244;22;20180;-81
2021/05/15 09:02:43;;;;;;;5.00;4.10;;;11.60;99.90;;;;;;6296824;22;20608;-80
2021/05/15 09:05:11;;;;;;;5.87;5.33;;;11.80;99.90;;;;;;6296761;22;20165;-81
2021/05/15 09:07:38;;;;;;;7.47;6.60;;;11.90;99.90;;;;;;6294247;22;20199;-81
2021/05/15 09:10:07;;;;;;;7.10;6.27;;;12.00;99.90;;;;;;6296151;22;20207;-81
2021/05/15 09:12:34;;;;;;;8.17;6.80;;;12.10;99.90;;;;;;6295464;22;20389;-81
2021/05/15 09:15:02;;;;;;;6.57;5.43;;;12.60;99.90;;;;;;6296317;22;20363;-82
2021/05/15 09:17:30;;;;;;;6.77;6.10;;;13.20;99.90;;;;;;6295503;22;20164;-81
2021/05/15 09:19:57;;;;;;;7.47;6.10;;;13.60;99.90;;;;;;6296721;22;20172;-82
2021/05/15 09:22:28;;;;;;;5.73;5.23;;;13.90;99.90;;;;;;6297094;22;20213;-81
2021/05/15 09:24:54;;;;;;;5.97;5.37;;;14.00;99.90;;;;;;6296256;22;20178;-80
2021/05/15 09:27:31;;;;;;;6.77;6.07;;;14.20;99.90;;;;;;6295961;22;20536;-81
2021/05/15 09:29:58;;;;;;;5.87;5.17;;;14.60;99.90;;;;;;6298281;22;20164;-82
2021/05/15 09:32:30;;;;;;;6.27;5.00;;;15.00;99.90;;;;;;6298468;22;20179;-83
2021/05/15 09:34:57;;;;;;;6.60;5.90;;;15.20;99.90;;;;;;6297842;22;20168;-80
2021/05/15 09:37:32;;;;;;;7.70;6.93;;;15.60;99.90;;;;;;6296306;22;20180;-83
2021/05/15 09:40:09;;;;;;;8.43;7.63;;;15.80;99.90;;;;;;6297456;22;20191;-81
2021/05/15 09:42:54;;;;;;;9.82;8.70;;;16.20;99.90;;;;;;6295761;22;20168;-83
2021/05/15 09:45:22;;;;;;;8.52;7.43;;;16.60;99.90;;;;;;6297997;22;20228;-83
2021/05/15 09:47:55;;;;;;;9.55;7.28;;;17.10;99.90;;;;;;6298962;22;20282;-85
2021/05/15 09:50:22;;;;;;;7.90;7.00;;;17.40;99.90;;;;;;6299362;22;20172;-82
2021/05/15 09:52:49;;;;;;;9.27;7.07;;;17.50;99.90;;;;;;6299885;22;20170;-85
2021/05/15 09:55:16;;;;;;;9.07;6.72;;;17.60;99.90;;;;;;6300855;22;20506;-83
2021/05/15 09:57:42;;;;;;;7.78;6.85;;;17.50;99.90;;;;;;6299734;22;20291;-84
2021/05/15 10:00:13;;;;;;;7.50;6.75;;;17.50;99.90;;;;;;6300498;22;20187;-85
2021/05/15 10:02:40;;;;;;;8.45;6.82;;;17.40;99.90;;;;;;6300376;22;20254;-84
2021/05/15 10:05:11;;;;;;;8.48;7.25;;;17.30;99.90;;;;;;6301948;22;20179;-84
2021/05/15 10:07:38;;;;;;;12.02;8.15;;;17.00;99.90;;;;;;6303462;22;20257;-84
2021/05/15 10:10:08;;;;;;;10.23;8.38;;;16.70;99.90;;;;;;6301839;22;20583;-84
2021/05/15 10:12:36;;;;;;;10.35;9.25;;;16.50;99.90;;;;;;6300890;22;20237;-84
2021/05/15 10:15:03;;;;;;;9.18;8.15;;;16.10;99.90;;;;;;6301821;22;20206;-85
2021/05/15 10:17:30;;;;;;;10.25;8.23;;;16.00;99.90;;;;;;6302500;22;20225;-84
2021/05/15 10:19:56;;;;;;;9.25;7.68;;;15.90;99.90;;;;;;6301184;22;20164;-83
2021/05/15 10:22:24;;;;;;;9.25;7.32;;;15.90;99.90;;;;;;6301158;22;20540;-82
2021/05/15 10:24:51;;;;;;;7.57;6.63;;;15.90;99.90;;;;;;6301068;22;20172;-82
2021/05/15 10:27:18;;;;;;;7.95;6.40;;;16.00;99.90;;;;;;6300525;22;20463;-86
2021/05/15 10:29:47;;;;;;;7.57;6.78;;;16.00;99.90;;;;;;6300860;22;20175;-82
2021/05/15 10:32:23;;;;;;;8.43;6.80;;;15.90;99.90;;;;;;6300541;22;20338;-82
2021/05/15 10:34:58;;;;;;;8.57;7.07;;;15.80;99.90;;;;;;6300946;22;20172;-83
2021/05/15 10:37:26;;;;;;;8.65;7.00;;;15.70;99.90;;;;;;6301136;22;20274;-83
2021/05/15 10:39:52;;;;;;;10.05;7.80;;;15.60;99.90;;;;;;6301488;22;20192;-85
2021/05/15 10:42:27;;;;;;;9.27;7.82;;;15.60;99.90;;;;;;6301715;22;20179;-80
2021/05/15 10:44:54;;;;;;;9.63;8.27;;;15.50;99.90;;;;;;6301186;22;20168;-84
2021/05/15 10:47:21;;;;;;;8.70;7.80;;;15.40;99.90;;;;;;6300779;22;20913;-84
2021/05/15 10:49:49;;;;;;;10.35;8.20;;;15.40;99.90;;;;;;6300077;22;20276;-85
2021/05/15 10:52:16;;;;;;;12.13;8.68;;;15.40;99.90;;;;;;6300749;22;20182;-86
2021/05/15 10:54:47;;;;;;;7.72;6.93;;;15.30;99.90;;;;;;6300653;22;20183;-85
2021/05/15 10:57:15;;;;;;;9.40;7.97;;;15.40;99.90;;;;;;6298949;22;20778;-86
2021/05/15 10:59:42;;;;;;;10.48;8.52;;;15.50;99.90;;;;;;6298085;22;20502;-85
2021/05/15 11:02:10;;;;;;;12.00;8.55;;;15.70;99.90;;;;;;6299460;22;20179;-84
2021/05/15 11:04:49;;;;;;;11.60;9.02;;;15.80;99.90;;;;;;6299675;22;20195;-82
2021/05/15 11:07:15;;;;;;;10.00;8.38;;;15.90;99.90;;;;;;6298611;22;20195;-81
2021/05/15 11:09:53;;;;;;;10.30;8.43;;;15.70;99.90;;;;;;6298894;22;20204;-82
2021/05/15 11:12:20;;;;;;;12.20;8.57;;;15.60;99.90;;;;;;6299721;22;20168;-81
2021/05/15 11:14:48;;;;;;;9.75;8.38;;;15.50;99.90;;;;;;6297868;22;20181;-80
2021/05/15 11:17:25;;;;;;;12.13;9.40;;;15.50;99.90;;;;;;6297979;22;20170;-81
2021/05/15 11:19:54;;;;;;;12.23;9.73;;;15.40;99.90;;;;;;6297857;22;20163;-81
2021/05/15 11:22:33;;;;;;;11.70;8.52;;;15.30;99.90;;;;;;6298268;22;20167;-82
2021/05/15 11:25:00;;;;;;;13.20;10.02;;;15.30;99.90;;;;;;6298048;22;20184;-82
2021/05/15 11:27:26;;;;;;;12.10;9.23;;;15.20;99.90;;;;;;6296805;22;20188;-82
2021/05/15 11:30:08;;;;;;;11.85;9.65;;;15.10;99.90;;;;;;6297283;22;20198;-81
2021/05/15 11:32:35;;;;;;;9.87;8.30;;;14.90;99.90;;;;;;6301399;22;20178;-81
2021/05/15 11:35:06;;;;;;;9.43;7.90;;;14.80;99.90;;;;;;6299093;22;20191;-81
2021/05/15 11:37:33;;;;;;;10.07;8.25;;;14.90;99.90;;;;;;6296596;22;20171;-80
2021/05/15 11:40:00;;;;;;;11.63;8.88;;;15.10;99.90;;;;;;6297517;22;20207;-83
2021/05/15 11:42:30;;;;;;;13.47;12.07;;;15.30;99.90;;;;;;6297974;22;20234;-85
2021/05/15 11:44:57;;;;;;;17.77;12.65;;;15.60;99.90;;;;;;6298541;22;20222;-82
2021/05/15 11:47:24;;;;;;;11.50;9.88;;;15.90;99.90;;;;;;6298621;22;20196;-81
2021/05/15 11:49:59;;;;;;;13.38;9.63;;;16.30;99.90;;;;;;6297679;22;20940;-84
2021/05/15 11:52:34;;;;;;;12.43;9.52;;;16.70;99.90;;;;;;6299228;22;20171;-81
2021/05/15 11:55:01;;;;;;;11.43;9.05;;;17.10;99.90;;;;;;6299141;22;20187;-84
2021/05/15 11:57:29;;;;;;;11.90;9.13;;;17.20;99.90;;;;;;6297738;22;20194;-84
2021/05/15 12:00:08;;;;;;;13.80;10.95;;;17.20;99.90;;;;;;6299861;22;20255;-81
2021/05/15 12:02:34;;;;;;;12.20;9.95;;;17.20;99.90;;;;;;6298161;22;20160;-83
2021/05/15 12:05:01;;;;;;;13.75;9.93;;;17.10;99.90;;;;;;6299621;22;20176;-85
2021/05/15 12:07:27;;;;;;;11.90;9.15;;;17.10;99.90;;;;;;6298054;22;20218;-80
2021/05/15 12:09:53;;;;;;;13.18;9.57;;;17.00;99.90;;;;;;6296497;22;20934;-80
2021/05/15 12:12:21;;;;;;;12.98;9.98;;;16.90;99.90;;;;;;6295924;22;20172;-81
2021/05/15 12:14:48;;;;;;;11.85;8.68;;;16.80;99.90;;;;;;6297862;22;20172;-81
2021/05/15 12:17:15;;;;;;;12.00;8.95;;;16.50;99.90;;;;;;6297648;22;20168;-81
2021/05/15 12:19:52;;;;;;;12.60;8.98;;;16.10;99.90;;;;;;6298241;22;20186;-82
2021/05/15 12:22:20;;;;;;;10.38;7.75;;;16.00;99.90;;;;;;6298975;22;20156;-81
2021/05/15 12:24:47;;;;;;;15.30;10.45;;;15.80;99.90;;;;;;6298260;22;20183;-84
2021/05/15 12:27:15;;;;;;;11.43;8.50;;;15.70;99.90;;;;;;6300183;22;20187;-82
2021/05/15 12:29:44;;;;;;;11.47;9.27;;;15.50;99.90;;;;;;6299580;22;20172;-81
2021/05/15 12:32:10;;;;;;;15.47;10.07;;;15.60;99.90;;;;;;6300511;22;20203;-82
2021/05/15 12:34:37;;;;;;;11.90;10.27;;;15.40;99.90;;;;;;6300041;22;20198;-82
2021/05/15 12:37:13;;;;;;;16.95;11.38;;;15.40;99.90;;;;;;6298415;22;20168;-83
2021/05/15 12:39:40;;;;;;;12.10;9.18;;;15.20;99.90;;;;;;6299646;22;20188;-81
2021/05/15 12:42:06;;;;;;;17.77;11.20;;;15.20;99.90;;;;;;6299151;22;20223;-82
2021/05/15 12:44:40;;;;;;;12.23;9.82;;;15.10;99.90;;;;;;6299639;22;20233;-83
2021/05/15 12:47:08;;;;;;;12.98;11.02;;;14.90;99.90;;;;;;6299535;22;20493;-81
2021/05/15 12:49:35;;;;;;;15.88;12.10;;;14.70;99.90;;;;;;6300346;22;20172;-80
2021/05/15 12:52:14;;;;;;;13.90;11.40;;;14.60;99.90;;;;;;6297936;22;20557;-82
2021/05/15 12:54:41;;;;;;;13.80;11.57;;;14.70;99.90;;;;;;6298567;22;20167;-81
2021/05/15 12:57:07;;;;;;;13.70;12.17;;;14.70;99.90;;;;;;6299110;22;20459;-82
2021/05/15 12:59:38;;;;;;;14.13;11.70;;;14.80;99.90;;;;;;6298117;22;20839;-83
2021/05/15 13:02:13;;;;;;;13.63;11.37;;;15.10;99.90;;;;;;6298474;22;20662;-81
2021/05/15 13:04:41;;;;;;;15.37;11.20;;;15.30;99.90;;;;;;6299180;22;20500;-82
2021/05/15 13:07:08;;;;;;;13.97;11.77;;;15.60;99.90;;;;;;6297632;22;20199;-80
2021/05/15 13:09:34;;;;;;;14.80;12.13;;;15.80;99.90;;;;;;6297431;22;20172;-81
2021/05/15 13:12:00;;;;;;;12.02;10.77;;;15.90;99.90;;;;;;6297854;22;20204;-84
2021/05/15 13:14:27;;;;;;;13.77;11.35;;;16.30;99.90;;;;;;6298746;22;20172;-84
2021/05/15 13:16:53;;;;;;;11.80;10.27;;;16.40;99.90;;;;;;6298270;22;20164;-80
2021/05/15 13:19:20;;;;;;;11.38;9.30;;;16.40;99.90;;;;;;6297401;22;20202;-82
2021/05/15 13:21:48;;;;;;;9.82;8.00;;;16.50;99.90;;;;;;6298933;22;20618;-82
2021/05/15 13:24:14;;;;;;;10.40;9.20;;;16.80;99.90;;;;;;6298095;22;20179;-82